BAW526 EGLL-EKCH
Flight info
| Callsign | BAW526 |
|---|---|
| Flight time | 1h 26m |
| Altitude | 39000 |
| Route | BPK6J BPK Q295 SOMVA DCT MAVAS DCT MAXUN DCT ROCZO DCT DOSUR DCT TALSA P729 TUDLO TUDLO4A |
| Aircraft | A20N/M-SDGIJ1LRWXY/SB1 |
Departure
| Time | 2026-04-22 08:18 |
|---|---|
| Airport | London Heathrow Airport (EGLL) |
Arrival
| Time | 2026-04-22 09:44 |
|---|---|
| Airport | Copenhagen Kastrup Airport (EKCH) |
| Time | Latitude | Longitude | Altitude | Speed | Heading |
|---|---|---|---|---|---|
| 2026-04-22 08:01 | 51.46849 | -0.47515 | 86 ft | 0 kts | 270° |
| 2026-04-22 08:08 | 51.46849 | -0.47513 | 86 ft | 2 kts | 270° |
| 2026-04-22 08:08 | 51.46849 | -0.47478 | 86 ft | 3 kts | 270° |
| 2026-04-22 08:08 | 51.46849 | -0.47443 | 86 ft | 3 kts | 270° |
| 2026-04-22 08:08 | 51.46849 | -0.47407 | 86 ft | 3 kts | 269° |
| 2026-04-22 08:09 | 51.46853 | -0.47373 | 87 ft | 3 kts | 234° |
| 2026-04-22 08:09 | 51.46870 | -0.47352 | 88 ft | 3 kts | 186° |
| 2026-04-22 08:09 | 51.46873 | -0.47351 | 88 ft | 0 kts | 180° |
| 2026-04-22 08:13 | 51.46869 | -0.47351 | 88 ft | 2 kts | 180° |
| 2026-04-22 08:13 | 51.46838 | -0.47350 | 90 ft | 7 kts | 178° |
| 2026-04-22 08:13 | 51.46779 | -0.47349 | 86 ft | 10 kts | 190° |
| 2026-04-22 08:13 | 51.46746 | -0.47453 | 89 ft | 13 kts | 266° |
| 2026-04-22 08:14 | 51.46745 | -0.47621 | 86 ft | 17 kts | 270° |
| 2026-04-22 08:14 | 51.46743 | -0.47827 | 86 ft | 19 kts | 269° |
| 2026-04-22 08:14 | 51.46742 | -0.48000 | 86 ft | 13 kts | 270° |
| 2026-04-22 08:14 | 51.46742 | -0.48042 | 86 ft | 2 kts | 270° |
| 2026-04-22 08:15 | 51.46742 | -0.48075 | 86 ft | 5 kts | 270° |
| 2026-04-22 08:15 | 51.46742 | -0.48148 | 86 ft | 8 kts | 269° |
| 2026-04-22 08:15 | 51.46701 | -0.48213 | 89 ft | 11 kts | 193° |
| 2026-04-22 08:15 | 51.46616 | -0.48220 | 86 ft | 14 kts | 180° |
| 2026-04-22 08:16 | 51.46513 | -0.48218 | 88 ft | 14 kts | 179° |
| 2026-04-22 08:16 | 51.46479 | -0.48152 | 88 ft | 7 kts | 88° |
| 2026-04-22 08:16 | 51.46479 | -0.48131 | 87 ft | 0 kts | 88° |
| 2026-04-22 08:17 | 51.46479 | -0.48127 | 87 ft | 2 kts | 88° |
| 2026-04-22 08:17 | 51.46483 | -0.47791 | 87 ft | 64 kts | 90° |
| 2026-04-22 08:17 | 51.46490 | -0.46752 | 89 ft | 118 kts | 90° |
| 2026-04-22 08:17 | 51.46490 | -0.45215 | 207 ft | 147 kts | 88° |
| 2026-04-22 08:18 | 51.46496 | -0.43638 | 783 ft | 145 kts | 86° |
| 2026-04-22 08:18 | 51.46532 | -0.41972 | 1312 ft | 152 kts | 82° |
| 2026-04-22 08:18 | 51.46942 | -0.40363 | 1793 ft | 163 kts | 60° |
| 2026-04-22 08:18 | 51.47651 | -0.38816 | 2139 ft | 184 kts | 56° |
| 2026-04-22 08:19 | 51.48512 | -0.37131 | 2563 ft | 206 kts | 54° |
| 2026-04-22 08:19 | 51.49483 | -0.35275 | 3063 ft | 228 kts | 54° |
| 2026-04-22 08:19 | 51.50541 | -0.33274 | 3883 ft | 239 kts | 54° |
| 2026-04-22 08:19 | 51.51582 | -0.31168 | 4933 ft | 241 kts | 59° |
| 2026-04-22 08:20 | 51.52423 | -0.28831 | 5567 ft | 243 kts | 70° |
| 2026-04-22 08:20 | 51.53048 | -0.26292 | 5853 ft | 245 kts | 73° |
| 2026-04-22 08:20 | 51.53634 | -0.23720 | 5978 ft | 246 kts | 73° |
| 2026-04-22 08:20 | 51.54202 | -0.21127 | 5994 ft | 246 kts | 74° |
| 2026-04-22 08:21 | 51.55039 | -0.18728 | 5996 ft | 254 kts | 51° |
| 2026-04-22 08:21 | 51.56582 | -0.17217 | 6263 ft | 272 kts | 21° |
| 2026-04-22 08:21 | 51.58476 | -0.16668 | 7114 ft | 276 kts | 14° |
| 2026-04-22 08:21 | 51.60368 | -0.16240 | 8266 ft | 275 kts | 13° |
| 2026-04-22 08:22 | 51.62283 | -0.15814 | 9292 ft | 280 kts | 13° |
| 2026-04-22 08:22 | 51.64223 | -0.15373 | 10305 ft | 284 kts | 13° |
| 2026-04-22 08:22 | 51.66187 | -0.14772 | 11018 ft | 295 kts | 20° |
| 2026-04-22 08:22 | 51.68237 | -0.13814 | 11394 ft | 319 kts | 20° |
| 2026-04-22 08:23 | 51.70430 | -0.12783 | 11884 ft | 335 kts | 19° |
| 2026-04-22 08:23 | 51.72589 | -0.11387 | 12746 ft | 334 kts | 35° |
| 2026-04-22 08:23 | 51.74312 | -0.08896 | 13571 ft | 335 kts | 55° |
| 2026-04-22 08:23 | 51.75357 | -0.05560 | 14383 ft | 336 kts | 75° |
| 2026-04-22 08:24 | 51.75745 | -0.01865 | 15081 ft | 341 kts | 83° |
| 2026-04-22 08:24 | 51.76051 | 0.01944 | 15848 ft | 343 kts | 83° |
| 2026-04-22 08:24 | 51.76357 | 0.05794 | 16599 ft | 349 kts | 83° |
| 2026-04-22 08:24 | 51.76570 | 0.08440 | 17042 ft | 354 kts | 82° |
| 2026-04-22 08:25 | 51.76890 | 0.12397 | 17817 ft | 357 kts | 82° |
| 2026-04-22 08:25 | 51.77215 | 0.16385 | 18541 ft | 363 kts | 82° |
| 2026-04-22 08:25 | 51.77550 | 0.20483 | 19026 ft | 371 kts | 82° |
| 2026-04-22 08:25 | 51.77885 | 0.24627 | 19692 ft | 375 kts | 81° |
| 2026-04-22 08:26 | 51.78225 | 0.28848 | 20180 ft | 383 kts | 81° |
| 2026-04-22 08:26 | 51.78571 | 0.33145 | 20746 ft | 389 kts | 80° |
| 2026-04-22 08:26 | 51.78919 | 0.37498 | 21319 ft | 394 kts | 80° |
| 2026-04-22 08:26 | 51.79272 | 0.41918 | 21877 ft | 399 kts | 80° |
| 2026-04-22 08:27 | 51.79627 | 0.46397 | 22457 ft | 405 kts | 79° |
| 2026-04-22 08:27 | 51.79985 | 0.50930 | 23094 ft | 407 kts | 79° |
| 2026-04-22 08:27 | 51.80342 | 0.55478 | 23757 ft | 411 kts | 79° |
| 2026-04-22 08:27 | 51.80703 | 0.60091 | 24202 ft | 416 kts | 79° |
| 2026-04-22 08:28 | 51.81236 | 0.64674 | 24789 ft | 414 kts | 73° |
| 2026-04-22 08:28 | 51.82115 | 0.69107 | 25255 ft | 416 kts | 65° |
| 2026-04-22 08:28 | 51.83242 | 0.73427 | 25704 ft | 419 kts | 64° |
| 2026-04-22 08:28 | 51.84379 | 0.77785 | 26173 ft | 423 kts | 64° |
| 2026-04-22 08:29 | 51.85522 | 0.82196 | 26625 ft | 427 kts | 63° |
| 2026-04-22 08:29 | 51.86669 | 0.86643 | 27063 ft | 430 kts | 63° |
| 2026-04-22 08:29 | 51.87823 | 0.91134 | 27488 ft | 434 kts | 63° |
| 2026-04-22 08:29 | 51.88986 | 0.95663 | 27912 ft | 437 kts | 63° |
| 2026-04-22 08:30 | 51.90157 | 1.00221 | 28438 ft | 438 kts | 63° |
| 2026-04-22 08:30 | 51.91306 | 1.04710 | 28956 ft | 439 kts | 63° |
| 2026-04-22 08:30 | 51.92480 | 1.09300 | 29277 ft | 443 kts | 63° |
| 2026-04-22 08:30 | 51.93661 | 1.13931 | 29644 ft | 446 kts | 62° |
| 2026-04-22 08:31 | 51.94849 | 1.18601 | 30021 ft | 449 kts | 62° |
| 2026-04-22 08:31 | 51.96042 | 1.23296 | 30382 ft | 452 kts | 62° |
| 2026-04-22 08:31 | 51.98447 | 1.32794 | 31038 ft | 457 kts | 62° |
| 2026-04-22 08:32 | 51.99655 | 1.37580 | 31370 ft | 460 kts | 62° |
| 2026-04-22 08:32 | 52.00867 | 1.42396 | 31747 ft | 461 kts | 63° |
| 2026-04-22 08:32 | 52.02076 | 1.47209 | 32201 ft | 460 kts | 63° |
| 2026-04-22 08:32 | 52.03283 | 1.51998 | 32770 ft | 456 kts | 65° |
| 2026-04-22 08:33 | 52.04476 | 1.56749 | 33260 ft | 454 kts | 65° |
| 2026-04-22 08:33 | 52.05663 | 1.61497 | 33683 ft | 453 kts | 65° |
| 2026-04-22 08:33 | 52.06844 | 1.66238 | 34066 ft | 453 kts | 65° |
| 2026-04-22 08:33 | 52.08025 | 1.70987 | 34427 ft | 453 kts | 65° |
| 2026-04-22 08:34 | 52.09201 | 1.75731 | 34742 ft | 452 kts | 65° |
| 2026-04-22 08:34 | 52.10377 | 1.80480 | 35034 ft | 452 kts | 65° |
| 2026-04-22 08:34 | 52.11549 | 1.85226 | 35326 ft | 453 kts | 65° |
| 2026-04-22 08:34 | 52.12721 | 1.89982 | 35606 ft | 453 kts | 65° |
| 2026-04-22 08:35 | 52.13890 | 1.94739 | 35880 ft | 453 kts | 65° |
| 2026-04-22 08:35 | 52.15059 | 1.99499 | 36195 ft | 451 kts | 65° |
| 2026-04-22 08:35 | 52.16218 | 2.04234 | 36540 ft | 450 kts | 66° |
| 2026-04-22 08:35 | 52.17375 | 2.08972 | 36778 ft | 450 kts | 66° |
| 2026-04-22 08:36 | 52.18532 | 2.13716 | 37018 ft | 451 kts | 66° |
| 2026-04-22 08:36 | 52.19687 | 2.18463 | 37254 ft | 451 kts | 66° |
| 2026-04-22 08:36 | 52.20837 | 2.23206 | 37480 ft | 451 kts | 66° |
| 2026-04-22 08:36 | 52.21993 | 2.27974 | 37706 ft | 451 kts | 66° |
| 2026-04-22 08:37 | 52.23145 | 2.32745 | 37925 ft | 452 kts | 66° |
| 2026-04-22 08:37 | 52.24295 | 2.37512 | 38152 ft | 452 kts | 66° |
| 2026-04-22 08:37 | 52.25443 | 2.42284 | 38344 ft | 452 kts | 66° |
| 2026-04-22 08:37 | 52.26591 | 2.47065 | 38592 ft | 451 kts | 66° |
| 2026-04-22 08:38 | 52.27731 | 2.51826 | 38896 ft | 449 kts | 66° |
| 2026-04-22 08:38 | 52.28868 | 2.56581 | 39083 ft | 449 kts | 66° |
| 2026-04-22 08:38 | 52.30002 | 2.61339 | 39232 ft | 449 kts | 66° |
| 2026-04-22 08:38 | 52.31038 | 2.66163 | 39364 ft | 451 kts | 71° |
| 2026-04-22 08:39 | 52.31896 | 2.71091 | 39391 ft | 451 kts | 72° |
| 2026-04-22 08:39 | 52.33636 | 2.80917 | 39391 ft | 449 kts | 71° |
| 2026-04-22 08:40 | 52.35371 | 2.90747 | 39399 ft | 450 kts | 71° |
| 2026-04-22 08:40 | 52.37087 | 3.00585 | 39406 ft | 448 kts | 72° |
| 2026-04-22 08:41 | 52.38780 | 3.10339 | 39401 ft | 445 kts | 71° |
| 2026-04-22 08:41 | 52.41043 | 3.19743 | 39402 ft | 443 kts | 61° |
| 2026-04-22 08:42 | 52.44047 | 3.28529 | 39405 ft | 442 kts | 58° |
| 2026-04-22 08:42 | 52.47095 | 3.37275 | 39408 ft | 442 kts | 58° |
| 2026-04-22 08:43 | 52.50138 | 3.46019 | 39410 ft | 441 kts | 58° |
| 2026-04-22 08:43 | 52.53170 | 3.54755 | 39412 ft | 440 kts | 58° |
| 2026-04-22 08:44 | 52.56171 | 3.63434 | 39408 ft | 439 kts | 59° |
| 2026-04-22 08:44 | 52.59180 | 3.72164 | 39402 ft | 438 kts | 59° |
| 2026-04-22 08:45 | 52.62175 | 3.80884 | 39395 ft | 437 kts | 59° |
| 2026-04-22 08:45 | 52.65161 | 3.89609 | 39394 ft | 437 kts | 59° |
| 2026-04-22 08:46 | 52.68137 | 3.98336 | 39393 ft | 437 kts | 59° |
| 2026-04-22 08:46 | 52.71106 | 4.07070 | 39409 ft | 437 kts | 59° |
| 2026-04-22 08:47 | 52.74073 | 4.15831 | 39409 ft | 437 kts | 59° |
| 2026-04-22 08:47 | 52.77033 | 4.24602 | 39402 ft | 437 kts | 59° |
| 2026-04-22 08:48 | 52.79985 | 4.33382 | 39404 ft | 437 kts | 59° |
| 2026-04-22 08:48 | 52.82933 | 4.42179 | 39405 ft | 438 kts | 59° |
| 2026-04-22 08:49 | 52.85877 | 4.50996 | 39404 ft | 438 kts | 59° |
| 2026-04-22 08:49 | 52.88815 | 4.59828 | 39410 ft | 438 kts | 60° |
| 2026-04-22 08:50 | 52.91749 | 4.68679 | 39414 ft | 439 kts | 60° |
| 2026-04-22 08:50 | 52.94681 | 4.77553 | 39431 ft | 439 kts | 60° |
| 2026-04-22 08:51 | 52.97605 | 4.86438 | 39435 ft | 439 kts | 60° |
| 2026-04-22 08:51 | 53.00523 | 4.95338 | 39434 ft | 439 kts | 60° |
| 2026-04-22 08:52 | 53.03437 | 5.04256 | 39432 ft | 439 kts | 60° |
| 2026-04-22 08:52 | 53.06344 | 5.13187 | 39433 ft | 439 kts | 60° |
| 2026-04-22 08:53 | 53.09246 | 5.22136 | 39434 ft | 439 kts | 60° |
| 2026-04-22 08:53 | 53.12140 | 5.31089 | 39436 ft | 439 kts | 60° |
| 2026-04-22 08:54 | 53.15024 | 5.40043 | 39434 ft | 439 kts | 60° |
| 2026-04-22 08:54 | 53.17901 | 5.49012 | 39433 ft | 439 kts | 60° |
| 2026-04-22 08:55 | 53.20769 | 5.57986 | 39432 ft | 438 kts | 60° |
| 2026-04-22 08:55 | 53.23628 | 5.66965 | 39435 ft | 438 kts | 60° |
| 2026-04-22 08:56 | 53.26481 | 5.75956 | 39434 ft | 438 kts | 60° |
| 2026-04-22 08:56 | 53.29321 | 5.84941 | 39428 ft | 437 kts | 61° |
| 2026-04-22 08:57 | 53.32155 | 5.93940 | 39426 ft | 437 kts | 61° |
| 2026-04-22 08:57 | 53.34976 | 6.02931 | 39424 ft | 436 kts | 61° |
| 2026-04-22 08:58 | 53.37790 | 6.11932 | 39425 ft | 436 kts | 61° |
| 2026-04-22 08:58 | 53.40595 | 6.20940 | 39439 ft | 436 kts | 61° |
| 2026-04-22 08:59 | 53.43391 | 6.29951 | 39435 ft | 435 kts | 61° |
| 2026-04-22 08:59 | 53.46159 | 6.38906 | 39436 ft | 435 kts | 61° |
| 2026-04-22 09:00 | 53.48936 | 6.47924 | 39432 ft | 434 kts | 61° |
| 2026-04-22 09:00 | 53.51704 | 6.56938 | 39435 ft | 434 kts | 61° |
| 2026-04-22 09:01 | 53.54752 | 6.65664 | 39419 ft | 432 kts | 53° |
| 2026-04-22 09:01 | 53.58544 | 6.73488 | 39426 ft | 431 kts | 49° |
| 2026-04-22 09:02 | 53.62386 | 6.81250 | 39433 ft | 431 kts | 50° |
| 2026-04-22 09:02 | 53.66224 | 6.89020 | 39437 ft | 431 kts | 50° |
| 2026-04-22 09:03 | 53.70059 | 6.96799 | 39433 ft | 431 kts | 50° |
| 2026-04-22 09:03 | 53.73883 | 7.04578 | 39428 ft | 431 kts | 50° |
| 2026-04-22 09:04 | 53.77703 | 7.12371 | 39424 ft | 430 kts | 50° |
| 2026-04-22 09:04 | 53.81514 | 7.20171 | 39428 ft | 430 kts | 50° |
| 2026-04-22 09:05 | 53.85317 | 7.27981 | 39422 ft | 430 kts | 50° |
| 2026-04-22 09:05 | 53.89113 | 7.35800 | 39426 ft | 429 kts | 50° |
| 2026-04-22 09:06 | 53.92901 | 7.43627 | 39444 ft | 429 kts | 50° |
| 2026-04-22 09:06 | 53.96677 | 7.51457 | 39429 ft | 429 kts | 50° |
| 2026-04-22 09:07 | 54.00449 | 7.59299 | 39429 ft | 428 kts | 50° |
| 2026-04-22 09:07 | 54.04209 | 7.67144 | 39434 ft | 428 kts | 50° |
| 2026-04-22 09:08 | 54.07329 | 7.73672 | 39433 ft | 427 kts | 50° |
| 2026-04-22 09:08 | 54.11075 | 7.81532 | 39430 ft | 427 kts | 51° |
| 2026-04-22 09:09 | 54.14812 | 7.89398 | 39423 ft | 426 kts | 51° |
| 2026-04-22 09:09 | 54.18798 | 7.96869 | 39432 ft | 426 kts | 46° |
| 2026-04-22 09:10 | 54.22902 | 8.04175 | 39427 ft | 426 kts | 46° |
| 2026-04-22 09:10 | 54.26988 | 8.11486 | 39423 ft | 425 kts | 43° |
| 2026-04-22 09:11 | 54.31111 | 8.18727 | 39415 ft | 424 kts | 45° |
| 2026-04-22 09:11 | 54.35264 | 8.25902 | 39411 ft | 424 kts | 45° |
| 2026-04-22 09:12 | 54.39305 | 8.33265 | 39403 ft | 424 kts | 48° |
| 2026-04-22 09:12 | 54.43286 | 8.40724 | 39398 ft | 423 kts | 46° |
| 2026-04-22 09:13 | 54.47311 | 8.48102 | 39399 ft | 423 kts | 47° |
| 2026-04-22 09:13 | 54.51322 | 8.55513 | 39399 ft | 423 kts | 50° |
| 2026-04-22 09:13 | 54.52955 | 8.59696 | 39397 ft | 423 kts | 63° |
| 2026-04-22 09:14 | 54.54186 | 8.64299 | 39393 ft | 423 kts | 65° |
| 2026-04-22 09:14 | 54.56561 | 8.73518 | 39396 ft | 424 kts | 65° |
| 2026-04-22 09:15 | 54.58960 | 8.82789 | 39399 ft | 424 kts | 65° |
| 2026-04-22 09:15 | 54.61362 | 8.92070 | 39391 ft | 424 kts | 65° |
| 2026-04-22 09:16 | 54.63755 | 9.01361 | 39389 ft | 424 kts | 65° |
| 2026-04-22 09:16 | 54.66143 | 9.10675 | 39378 ft | 424 kts | 65° |
| 2026-04-22 09:17 | 54.68521 | 9.19985 | 39370 ft | 422 kts | 65° |
| 2026-04-22 09:17 | 54.69699 | 9.24614 | 39203 ft | 418 kts | 65° |
| 2026-04-22 09:17 | 54.70863 | 9.29202 | 38704 ft | 416 kts | 65° |
| 2026-04-22 09:17 | 54.72022 | 9.33776 | 38059 ft | 415 kts | 65° |
| 2026-04-22 09:18 | 54.73177 | 9.38343 | 37366 ft | 414 kts | 65° |
| 2026-04-22 09:18 | 54.74327 | 9.42901 | 36682 ft | 414 kts | 65° |
| 2026-04-22 09:18 | 54.75478 | 9.47466 | 36014 ft | 413 kts | 65° |
| 2026-04-22 09:18 | 54.76623 | 9.52020 | 35362 ft | 412 kts | 65° |
| 2026-04-22 09:19 | 54.77767 | 9.56578 | 34716 ft | 412 kts | 65° |
| 2026-04-22 09:19 | 54.78906 | 9.61127 | 34034 ft | 411 kts | 65° |
| 2026-04-22 09:19 | 54.80037 | 9.65656 | 33407 ft | 408 kts | 65° |
| 2026-04-22 09:19 | 54.81133 | 9.70056 | 32858 ft | 403 kts | 65° |
| 2026-04-22 09:20 | 54.82243 | 9.74522 | 32290 ft | 398 kts | 65° |
| 2026-04-22 09:20 | 54.83331 | 9.78908 | 31752 ft | 394 kts | 65° |
| 2026-04-22 09:20 | 54.84407 | 9.83256 | 31252 ft | 390 kts | 65° |
| 2026-04-22 09:20 | 54.85473 | 9.87570 | 30718 ft | 387 kts | 65° |
| 2026-04-22 09:21 | 54.86528 | 9.91845 | 30122 ft | 383 kts | 64° |
| 2026-04-22 09:21 | 54.87572 | 9.96080 | 29474 ft | 380 kts | 64° |
| 2026-04-22 09:21 | 54.88606 | 10.00285 | 28880 ft | 377 kts | 64° |
| 2026-04-22 09:21 | 54.89629 | 10.04453 | 28291 ft | 374 kts | 64° |
| 2026-04-22 09:22 | 54.90643 | 10.08595 | 27711 ft | 370 kts | 64° |
| 2026-04-22 09:22 | 54.91646 | 10.12694 | 27139 ft | 368 kts | 64° |
| 2026-04-22 09:22 | 54.92639 | 10.16766 | 26580 ft | 365 kts | 64° |
| 2026-04-22 09:22 | 54.93625 | 10.20814 | 26032 ft | 362 kts | 64° |
| 2026-04-22 09:23 | 54.94600 | 10.24828 | 25574 ft | 357 kts | 63° |
| 2026-04-22 09:23 | 54.95559 | 10.28781 | 25419 ft | 355 kts | 63° |
| 2026-04-22 09:23 | 54.96530 | 10.32779 | 25367 ft | 360 kts | 63° |
| 2026-04-22 09:23 | 54.97505 | 10.36804 | 25369 ft | 359 kts | 63° |
| 2026-04-22 09:24 | 54.98471 | 10.40808 | 25374 ft | 359 kts | 63° |
| 2026-04-22 09:24 | 54.99439 | 10.44824 | 25377 ft | 360 kts | 63° |
| 2026-04-22 09:24 | 55.00404 | 10.48835 | 25365 ft | 359 kts | 62° |
| 2026-04-22 09:24 | 55.01378 | 10.52842 | 25345 ft | 358 kts | 64° |
| 2026-04-22 09:25 | 55.02333 | 10.56838 | 25074 ft | 356 kts | 64° |
| 2026-04-22 09:25 | 55.03278 | 10.60817 | 24642 ft | 355 kts | 64° |
| 2026-04-22 09:25 | 55.04218 | 10.64776 | 24142 ft | 353 kts | 63° |
| 2026-04-22 09:25 | 55.05154 | 10.68715 | 23585 ft | 350 kts | 63° |
| 2026-04-22 09:26 | 55.06084 | 10.72627 | 22970 ft | 349 kts | 63° |
| 2026-04-22 09:26 | 55.07013 | 10.76535 | 22385 ft | 347 kts | 63° |
| 2026-04-22 09:26 | 55.07931 | 10.80405 | 21844 ft | 344 kts | 63° |
| 2026-04-22 09:26 | 55.08843 | 10.84258 | 21290 ft | 342 kts | 63° |
| 2026-04-22 09:27 | 55.09748 | 10.88085 | 20755 ft | 340 kts | 63° |
| 2026-04-22 09:27 | 55.10645 | 10.91888 | 20235 ft | 338 kts | 63° |
| 2026-04-22 09:27 | 55.11536 | 10.95670 | 19726 ft | 336 kts | 63° |
| 2026-04-22 09:27 | 55.12422 | 10.99439 | 19234 ft | 334 kts | 63° |
| 2026-04-22 09:28 | 55.13300 | 11.03179 | 18757 ft | 332 kts | 63° |
| 2026-04-22 09:28 | 55.14175 | 11.06909 | 18224 ft | 330 kts | 64° |
| 2026-04-22 09:28 | 55.15040 | 11.10606 | 17698 ft | 328 kts | 64° |
| 2026-04-22 09:28 | 55.15900 | 11.14287 | 17178 ft | 326 kts | 64° |
| 2026-04-22 09:29 | 55.16743 | 11.17898 | 16668 ft | 324 kts | 64° |
| 2026-04-22 09:29 | 55.17593 | 11.21538 | 16164 ft | 322 kts | 64° |
| 2026-04-22 09:29 | 55.18434 | 11.25162 | 15681 ft | 320 kts | 64° |
| 2026-04-22 09:29 | 55.19268 | 11.28765 | 15178 ft | 319 kts | 64° |
| 2026-04-22 09:30 | 55.20098 | 11.32353 | 14716 ft | 317 kts | 64° |
| 2026-04-22 09:30 | 55.20923 | 11.35925 | 14258 ft | 315 kts | 64° |
| 2026-04-22 09:30 | 55.21742 | 11.39474 | 13766 ft | 314 kts | 64° |
| 2026-04-22 09:30 | 55.22555 | 11.43008 | 13276 ft | 312 kts | 65° |
| 2026-04-22 09:31 | 55.23362 | 11.46519 | 12790 ft | 310 kts | 65° |
| 2026-04-22 09:31 | 55.24163 | 11.50010 | 12309 ft | 308 kts | 65° |
| 2026-04-22 09:31 | 55.24959 | 11.53485 | 11825 ft | 306 kts | 65° |
| 2026-04-22 09:31 | 55.25748 | 11.56936 | 11365 ft | 304 kts | 65° |
| 2026-04-22 09:32 | 55.26534 | 11.60372 | 10893 ft | 303 kts | 65° |
| 2026-04-22 09:32 | 55.27314 | 11.63792 | 10430 ft | 302 kts | 65° |
| 2026-04-22 09:32 | 55.28091 | 11.67206 | 9976 ft | 300 kts | 65° |
| 2026-04-22 09:32 | 55.28859 | 11.70590 | 9479 ft | 298 kts | 65° |
| 2026-04-22 09:33 | 55.29623 | 11.73958 | 8994 ft | 296 kts | 65° |
| 2026-04-22 09:33 | 55.30382 | 11.77311 | 8536 ft | 294 kts | 65° |
| 2026-04-22 09:33 | 55.31133 | 11.80633 | 8075 ft | 293 kts | 65° |
| 2026-04-22 09:33 | 55.31881 | 11.83947 | 7621 ft | 291 kts | 65° |
| 2026-04-22 09:34 | 55.32624 | 11.87239 | 7167 ft | 289 kts | 65° |
| 2026-04-22 09:34 | 55.33363 | 11.90521 | 6732 ft | 288 kts | 65° |
| 2026-04-22 09:34 | 55.34090 | 11.93762 | 6423 ft | 281 kts | 65° |
| 2026-04-22 09:35 | 55.35427 | 11.99764 | 6092 ft | 246 kts | 65° |
| 2026-04-22 09:35 | 55.36037 | 12.02492 | 5965 ft | 235 kts | 64° |
| 2026-04-22 09:35 | 55.36628 | 12.05129 | 5690 ft | 232 kts | 64° |
| 2026-04-22 09:35 | 55.37222 | 12.07779 | 5348 ft | 232 kts | 64° |
| 2026-04-22 09:36 | 55.37812 | 12.10422 | 5051 ft | 232 kts | 64° |
| 2026-04-22 09:36 | 55.38399 | 12.13055 | 4770 ft | 231 kts | 64° |
| 2026-04-22 09:36 | 55.38982 | 12.15678 | 4441 ft | 229 kts | 64° |
| 2026-04-22 09:36 | 55.39562 | 12.18291 | 4137 ft | 229 kts | 64° |
| 2026-04-22 09:37 | 55.40142 | 12.20907 | 3829 ft | 228 kts | 64° |
| 2026-04-22 09:37 | 55.40701 | 12.23451 | 3720 ft | 218 kts | 64° |
| 2026-04-22 09:37 | 55.41234 | 12.25875 | 3639 ft | 207 kts | 64° |
| 2026-04-22 09:37 | 55.41746 | 12.28190 | 3558 ft | 198 kts | 63° |
| 2026-04-22 09:38 | 55.42230 | 12.30393 | 3513 ft | 186 kts | 62° |
| 2026-04-22 09:38 | 55.42687 | 12.32467 | 3230 ft | 181 kts | 62° |
| 2026-04-22 09:38 | 55.43146 | 12.34526 | 3020 ft | 183 kts | 60° |
| 2026-04-22 09:38 | 55.43792 | 12.36417 | 2906 ft | 178 kts | 43° |
| 2026-04-22 09:39 | 55.44652 | 12.37960 | 2804 ft | 176 kts | 36° |
| 2026-04-22 09:39 | 55.45572 | 12.39360 | 2675 ft | 173 kts | 34° |
| 2026-04-22 09:39 | 55.46477 | 12.40744 | 2566 ft | 172 kts | 35° |
| 2026-04-22 09:39 | 55.47379 | 12.42128 | 2479 ft | 173 kts | 35° |
| 2026-04-22 09:40 | 55.48293 | 12.43530 | 2358 ft | 175 kts | 35° |
| 2026-04-22 09:40 | 55.49206 | 12.44936 | 2215 ft | 172 kts | 35° |
| 2026-04-22 09:40 | 55.50101 | 12.46311 | 2137 ft | 171 kts | 34° |
| 2026-04-22 09:40 | 55.50984 | 12.47671 | 2055 ft | 165 kts | 35° |
| 2026-04-22 09:41 | 55.51852 | 12.49002 | 1929 ft | 167 kts | 35° |
| 2026-04-22 09:41 | 55.52723 | 12.50345 | 1719 ft | 167 kts | 35° |
| 2026-04-22 09:41 | 55.53603 | 12.51700 | 1486 ft | 167 kts | 35° |
| 2026-04-22 09:41 | 55.54447 | 12.53007 | 1259 ft | 154 kts | 35° |
| 2026-04-22 09:42 | 55.55221 | 12.54199 | 1042 ft | 143 kts | 34° |
| 2026-04-22 09:42 | 55.55970 | 12.55348 | 847 ft | 143 kts | 36° |
| 2026-04-22 09:42 | 55.56722 | 12.56500 | 711 ft | 145 kts | 31° |
| 2026-04-22 09:42 | 55.57488 | 12.57690 | 555 ft | 146 kts | 32° |
| 2026-04-22 09:43 | 55.58236 | 12.58853 | 331 ft | 141 kts | 32° |
| 2026-04-22 09:43 | 55.58994 | 12.59985 | 105 ft | 144 kts | 34° |
| 2026-04-22 09:43 | 55.59724 | 12.61133 | 26 ft | 132 kts | 32° |
| 2026-04-22 09:43 | 55.60269 | 12.61946 | 24 ft | 73 kts | 41° |
| 2026-04-22 09:44 | 55.60556 | 12.62311 | 25 ft | 43 kts | 20° |
| 2026-04-22 09:44 | 55.60783 | 12.62406 | 25 ft | 28 kts | 22° |
| 2026-04-22 09:44 | 55.60900 | 12.62564 | 26 ft | 20 kts | 41° |
| 2026-04-22 09:44 | 55.61010 | 12.62733 | 23 ft | 22 kts | 41° |
| 2026-04-22 09:45 | 55.61132 | 12.62920 | 25 ft | 24 kts | 43° |
| 2026-04-22 09:45 | 55.61251 | 12.63108 | 24 ft | 23 kts | 40° |
| 2026-04-22 09:45 | 55.61379 | 12.63305 | 24 ft | 25 kts | 41° |
| 2026-04-22 09:45 | 55.61518 | 12.63519 | 26 ft | 28 kts | 40° |
| 2026-04-22 09:46 | 55.61667 | 12.63749 | 26 ft | 29 kts | 39° |
| 2026-04-22 09:46 | 55.61810 | 12.63978 | 27 ft | 23 kts | 43° |
| 2026-04-22 09:46 | 55.61907 | 12.64103 | 26 ft | 17 kts | 23° |
| 2026-04-22 09:46 | 55.62022 | 12.64194 | 27 ft | 19 kts | 25° |
| 2026-04-22 09:47 | 55.62140 | 12.64292 | 24 ft | 19 kts | 24° |
| 2026-04-22 09:47 | 55.62247 | 12.64403 | 22 ft | 18 kts | 55° |
| 2026-04-22 09:47 | 55.62296 | 12.64586 | 26 ft | 16 kts | 66° |
| 2026-04-22 09:47 | 55.62347 | 12.64779 | 26 ft | 13 kts | 64° |
| 2026-04-22 09:48 | 55.62337 | 12.64916 | 26 ft | 14 kts | 120° |
| 2026-04-22 09:48 | 55.62282 | 12.65070 | 26 ft | 14 kts | 121° |
| 2026-04-22 09:48 | 55.62325 | 12.65205 | 24 ft | 16 kts | 11° |
| 2026-04-22 09:48 | 55.62427 | 12.65200 | 24 ft | 13 kts | 357° |
| 2026-04-22 09:49 | 55.62528 | 12.65183 | 24 ft | 13 kts | 358° |
| 2026-04-22 09:49 | 55.62602 | 12.65179 | 24 ft | 12 kts | 2° |
| 2026-04-22 09:49 | 55.62666 | 12.65191 | 23 ft | 8 kts | 354° |
| 2026-04-22 09:49 | 55.62693 | 12.65115 | 26 ft | 6 kts | 290° |
| 2026-04-22 09:50 | 55.62699 | 12.65087 | 25 ft | 0 kts | 290° |
| 2026-04-22 09:53 | 55.62698 | 12.65087 | 25 ft | 0 kts | 290° |